Time,TemperatureF,DewpointF,PressureIn,WindDirection,WindDirectionDegrees,WindSpeedMPH,WindSpeedGustMPH,Humidity,HourlyPrecipIn,Conditions,Clouds,dailyrainin,SolarRadiationWatts/m^2,SoftwareType,DateUTC
2013-11-13 00:03:00,30.0,10.0,-100.00,NNE,15,3.0,9.0,43,0.00,,,0.00,0.000000,,2013-11-13 05:03:00,
2013-11-13 00:23:00,30.0,11.0,-100.00,NE,40,2.0,9.0,44,0.00,,,0.00,0.000000,,2013-11-13 05:23:00,
2013-11-13 00:34:00,30.0,11.0,-100.00,NE,40,2.0,9.0,44,0.00,,,0.00,0.000000,,2013-11-13 05:34:00,
2013-11-13 00:43:00,30.0,11.0,-100.00,NE,40,2.0,9.0,44,0.00,,,0.00,0.000000,,2013-11-13 05:43:00,
2013-11-13 00:54:00,30.0,11.0,-100.00,NE,40,2.0,9.0,44,0.00,,,0.00,0.000000,,2013-11-13 05:54:00,
2013-11-13 01:03:00,30.0,11.0,-100.00,NE,40,2.0,9.0,44,0.00,,,0.00,0.000000,,2013-11-13 06:03:00,
2013-11-13 01:42:00,30.0,12.0,-100.00,NNE,14,3.0,6.0,47,0.00,,,0.00,0.000000,,2013-11-13 06:42:00,
2013-11-13 01:52:00,30.0,12.0,-100.00,NNE,14,3.0,6.0,47,0.00,,,0.00,0.000000,,2013-11-13 06:52:00,
2013-11-13 02:02:00,30.0,12.0,-100.00,NNE,14,3.0,6.0,47,0.00,,,0.00,0.000000,,2013-11-13 07:02:00,
2013-11-13 02:42:00,30.0,13.0,-100.00,NNE,17,3.0,10.0,49,0.00,,,0.00,0.000000,,2013-11-13 07:42:00,
2013-11-13 02:52:00,30.0,13.0,-100.00,NNE,17,3.0,10.0,49,0.00,,,0.00,0.000000,,2013-11-13 07:52:00,
2013-11-13 03:02:00,30.0,13.0,-100.00,NNE,17,3.0,10.0,49,0.00,,,0.00,0.000000,,2013-11-13 08:02:00,
2013-11-13 03:22:00,29.0,13.0,-100.00,North,10,4.0,9.0,51,0.00,,,0.00,0.000000,,2013-11-13 08:22:00,
2013-11-13 03:32:00,29.0,13.0,-100.00,North,10,4.0,9.0,51,0.00,,,0.00,0.000000,,2013-11-13 08:32:00,
2013-11-13 03:42:00,29.0,13.0,-100.00,North,10,4.0,9.0,51,0.00,,,0.00,0.000000,,2013-11-13 08:42:00,
2013-11-13 03:52:00,29.0,13.0,-100.00,North,10,4.0,9.0,51,0.00,,,0.00,0.000000,,2013-11-13 08:52:00,
2013-11-13 04:03:00,29.0,13.0,-100.00,North,10,4.0,9.0,51,0.00,,,0.00,0.000000,,2013-11-13 09:03:00,
2013-11-13 04:22:00,29.0,14.0,-100.00,North,10,4.0,10.0,52,0.00,,,0.00,0.000000,,2013-11-13 09:22:00,
2013-11-13 04:33:00,29.0,14.0,-100.00,North,10,4.0,10.0,52,0.00,,,0.00,0.000000,,2013-11-13 09:33:00,
2013-11-13 04:43:00,29.0,14.0,-100.00,North,10,4.0,10.0,52,0.00,,,0.00,0.000000,,2013-11-13 09:43:00,
2013-11-13 04:53:00,29.0,14.0,-100.00,North,10,4.0,10.0,52,0.00,,,0.00,0.000000,,2013-11-13 09:53:00,
2013-11-13 05:03:00,29.0,14.0,-100.00,North,10,4.0,10.0,52,0.00,,,0.00,0.000000,,2013-11-13 10:03:00,
2013-11-13 05:42:00,29.0,13.0,-100.00,North,5,3.0,10.0,50,0.00,,,0.00,0.000000,,2013-11-13 10:42:00,
2013-11-13 05:52:00,29.0,13.0,-100.00,North,5,3.0,10.0,50,0.00,,,0.00,0.000000,,2013-11-13 10:52:00,
2013-11-13 06:02:00,29.0,13.0,-100.00,North,5,3.0,10.0,50,0.00,,,0.00,0.000000,,2013-11-13 11:02:00,
2013-11-13 06:42:00,24.0,12.0,-100.00,NW,323,1.0,4.0,60,0.00,,,-99.99,0.000000,,2013-11-13 11:42:00,
2013-11-13 06:52:00,24.0,12.0,-100.00,NW,323,1.0,4.0,60,0.00,,,-99.99,0.000000,,2013-11-13 11:52:00,
2013-11-13 07:02:00,24.0,12.0,-100.00,NW,323,1.0,4.0,60,0.00,,,-99.99,0.000000,,2013-11-13 12:02:00,
2013-11-13 07:42:00,29.0,14.0,-100.00,North,9,4.0,10.0,52,0.00,,,0.00,1.000000,,2013-11-13 12:42:00,
2013-11-13 07:52:00,29.0,14.0,-100.00,North,9,4.0,10.0,52,0.00,,,0.00,1.000000,,2013-11-13 12:52:00,
2013-11-13 08:01:00,29.0,14.0,-100.00,North,9,4.0,10.0,52,0.00,,,0.00,1.000000,,2013-11-13 13:01:00,
2013-11-13 08:42:00,31.0,12.0,-100.00,NNE,16,3.0,7.0,44,0.00,,,0.00,19.000000,,2013-11-13 13:42:00,
2013-11-13 08:52:00,31.0,12.0,-100.00,NNE,16,3.0,7.0,44,0.00,,,0.00,19.000000,,2013-11-13 13:52:00,
2013-11-13 09:02:00,31.0,12.0,-100.00,NNE,16,3.0,7.0,44,0.00,,,0.00,19.000000,,2013-11-13 14:02:00,
2013-11-13 09:42:00,35.0,10.0,-100.00,North,9,6.0,11.0,35,0.00,,,0.00,165.000000,,2013-11-13 14:42:00,
2013-11-13 09:53:00,35.0,10.0,-100.00,North,9,6.0,11.0,35,0.00,,,0.00,165.000000,,2013-11-13 14:53:00,
2013-11-13 10:02:00,35.0,10.0,-100.00,North,9,6.0,11.0,35,0.00,,,0.00,165.000000,,2013-11-13 15:02:00,
2013-11-13 10:22:00,37.0,9.0,-100.00,NE,52,3.0,13.0,31,0.00,,,0.00,449.000000,,2013-11-13 15:22:00,
2013-11-13 10:33:00,37.0,9.0,-100.00,NE,52,3.0,13.0,31,0.00,,,0.00,449.000000,,2013-11-13 15:33:00,
2013-11-13 10:43:00,37.0,9.0,-100.00,NE,52,3.0,13.0,31,0.00,,,0.00,449.000000,,2013-11-13 15:43:00,
2013-11-13 10:53:00,37.0,9.0,-100.00,NE,52,3.0,13.0,31,0.00,,,0.00,449.000000,,2013-11-13 15:53:00,
2013-11-13 11:03:00,37.0,9.0,-100.00,NE,52,3.0,13.0,31,0.00,,,0.00,449.000000,,2013-11-13 16:03:00,
2013-11-13 11:43:00,42.0,11.0,-100.00,NE,38,3.0,7.0,28,0.00,,,0.00,581.000000,,2013-11-13 16:43:00,
2013-11-13 11:53:00,42.0,11.0,-100.00,NE,38,3.0,7.0,28,0.00,,,0.00,581.000000,,2013-11-13 16:53:00,
2013-11-13 12:02:00,42.0,11.0,-100.00,NE,38,3.0,7.0,28,0.00,,,0.00,581.000000,,2013-11-13 17:02:00,
2013-11-13 12:23:00,44.0,11.0,-100.00,NE,51,3.0,6.0,26,0.00,,,0.00,657.000000,,2013-11-13 17:23:00,
2013-11-13 12:33:00,44.0,11.0,-100.00,NE,51,3.0,6.0,26,0.00,,,0.00,657.000000,,2013-11-13 17:33:00,
2013-11-13 12:42:00,44.0,11.0,-100.00,NE,51,3.0,6.0,26,0.00,,,0.00,657.000000,,2013-11-13 17:42:00,
2013-11-13 12:52:00,44.0,11.0,-100.00,NE,51,3.0,6.0,26,0.00,,,0.00,657.000000,,2013-11-13 17:52:00,
2013-11-13 13:02:00,44.0,11.0,-100.00,NE,51,3.0,6.0,26,0.00,,,0.00,657.000000,,2013-11-13 18:02:00,
2013-11-13 13:42:00,48.0,10.0,-100.00,NNE,23,3.0,9.0,21,0.00,,,0.00,665.000000,,2013-11-13 18:42:00,
2013-11-13 13:52:00,48.0,10.0,-100.00,NNE,23,3.0,9.0,21,0.00,,,0.00,665.000000,,2013-11-13 18:52:00,
2013-11-13 14:02:00,48.0,10.0,-100.00,NNE,23,3.0,9.0,21,0.00,,,0.00,665.000000,,2013-11-13 19:02:00,
2013-11-13 14:22:00,50.0,13.0,-100.00,ESE,108,3.0,7.0,22,0.00,,,0.00,609.000000,,2013-11-13 19:22:00,
2013-11-13 14:32:00,50.0,13.0,-100.00,ESE,108,3.0,7.0,22,0.00,,,0.00,609.000000,,2013-11-13 19:32:00,
2013-11-13 14:42:00,50.0,13.0,-100.00,ESE,108,3.0,7.0,22,0.00,,,0.00,609.000000,,2013-11-13 19:42:00,
2013-11-13 14:52:00,50.0,13.0,-100.00,ESE,108,3.0,7.0,22,0.00,,,0.00,609.000000,,2013-11-13 19:52:00,
2013-11-13 15:02:00,50.0,13.0,-100.00,ESE,108,3.0,7.0,22,0.00,,,0.00,609.000000,,2013-11-13 20:02:00,
2013-11-13 15:22:00,51.0,9.0,-100.00,NNE,21,3.0,6.0,18,0.00,,,0.00,492.000000,,2013-11-13 20:22:00,
2013-11-13 15:32:00,51.0,9.0,-100.00,NNE,21,3.0,6.0,18,0.00,,,0.00,492.000000,,2013-11-13 20:32:00,
2013-11-13 15:42:00,51.0,9.0,-100.00,NNE,21,3.0,6.0,18,0.00,,,0.00,492.000000,,2013-11-13 20:42:00,
2013-11-13 15:52:00,51.0,9.0,-100.00,NNE,21,3.0,6.0,18,0.00,,,0.00,492.000000,,2013-11-13 20:52:00,
2013-11-13 16:02:00,51.0,9.0,-100.00,NNE,21,3.0,6.0,18,0.00,,,0.00,492.000000,,2013-11-13 21:02:00,
2013-11-13 16:22:00,50.0,8.0,-100.00,NNE,28,2.0,5.0,18,0.00,,,0.00,327.000000,,2013-11-13 21:22:00,
2013-11-13 16:33:00,50.0,8.0,-100.00,NNE,28,2.0,5.0,18,0.00,,,0.00,327.000000,,2013-11-13 21:33:00,
2013-11-13 16:43:00,50.0,8.0,-100.00,NNE,28,2.0,5.0,18,0.00,,,0.00,327.000000,,2013-11-13 21:43:00,
2013-11-13 16:53:00,50.0,8.0,-100.00,NNE,28,2.0,5.0,18,0.00,,,0.00,327.000000,,2013-11-13 21:53:00,
2013-11-13 17:03:00,50.0,8.0,-100.00,NNE,28,2.0,5.0,18,0.00,,,0.00,327.000000,,2013-11-13 22:03:00,
2013-11-13 17:23:00,47.0,8.0,-100.00,ENE,63,1.0,4.0,20,0.00,,,0.00,129.000000,,2013-11-13 22:23:00,
2013-11-13 17:33:00,47.0,8.0,-100.00,ENE,63,1.0,4.0,20,0.00,,,0.00,129.000000,,2013-11-13 22:33:00,
2013-11-13 17:42:00,47.0,8.0,-100.00,ENE,63,1.0,4.0,20,0.00,,,0.00,129.000000,,2013-11-13 22:42:00,
2013-11-13 17:53:00,47.0,8.0,-100.00,ENE,63,1.0,4.0,20,0.00,,,0.00,129.000000,,2013-11-13 22:53:00,
2013-11-13 18:02:00,47.0,8.0,-100.00,ENE,63,1.0,4.0,20,0.00,,,0.00,129.000000,,2013-11-13 23:02:00,
2013-11-13 18:22:00,38.0,16.0,-100.00,SSW,210,2.0,4.0,40,0.00,,,0.00,4.000000,,2013-11-13 23:22:00,
2013-11-13 18:32:00,38.0,16.0,-100.00,SSW,210,2.0,4.0,40,0.00,,,0.00,4.000000,,2013-11-13 23:32:00,
2013-11-13 18:43:00,38.0,16.0,-100.00,SSW,210,2.0,4.0,40,0.00,,,0.00,4.000000,,2013-11-13 23:43:00,
2013-11-13 18:53:00,38.0,16.0,-100.00,SSW,210,2.0,4.0,40,0.00,,,0.00,4.000000,,2013-11-13 23:53:00,
2013-11-13 19:02:00,38.0,16.0,-100.00,SSW,210,2.0,4.0,40,0.00,,,0.00,4.000000,,2013-11-14 00:02:00,
2013-11-13 19:22:00,34.0,16.0,-100.00,North,359,2.0,3.0,47,0.00,,,0.00,0.000000,,2013-11-14 00:22:00,
2013-11-13 19:32:00,34.0,16.0,-100.00,North,359,2.0,3.0,47,0.00,,,0.00,0.000000,,2013-11-14 00:32:00,
2013-11-13 19:42:00,34.0,16.0,-100.00,North,359,2.0,3.0,47,0.00,,,0.00,0.000000,,2013-11-14 00:42:00,
2013-11-13 19:52:00,34.0,16.0,-100.00,North,359,2.0,3.0,47,0.00,,,0.00,0.000000,,2013-11-14 00:52:00,
2013-11-13 20:02:00,34.0,16.0,-100.00,North,359,2.0,3.0,47,0.00,,,0.00,0.000000,,2013-11-14 01:02:00,
2013-11-13 20:42:00,31.0,15.0,-100.00,SSW,201,0.0,3.0,52,0.00,,,0.00,0.000000,,2013-11-14 01:42:00,
2013-11-13 20:52:00,31.0,15.0,-100.00,SSW,201,0.0,3.0,52,0.00,,,0.00,0.000000,,2013-11-14 01:52:00,
2013-11-13 21:02:00,31.0,15.0,-100.00,SSW,201,0.0,3.0,52,0.00,,,0.00,0.000000,,2013-11-14 02:02:00,
2013-11-13 21:53:00,28.0,17.0,-100.00,ESE,116,1.0,5.0,63,0.00,,,0.00,0.000000,,2013-11-14 02:53:00,
2013-11-13 22:02:00,28.0,17.0,-100.00,ESE,116,1.0,5.0,63,0.00,,,0.00,0.000000,,2013-11-14 03:02:00,
2013-11-13 22:04:00,27.0,17.0,-100.00,WSW,241,2.0,3.0,65,0.00,,,0.00,0.000000,,2013-11-14 03:04:00,
2013-11-13 22:44:00,27.0,17.0,-100.00,WSW,241,2.0,3.0,65,0.00,,,0.00,0.000000,,2013-11-14 03:44:00,
2013-11-13 22:54:00,27.0,17.0,-100.00,WSW,241,2.0,3.0,65,0.00,,,0.00,0.000000,,2013-11-14 03:54:00,
2013-11-13 23:43:00,25.0,17.0,-100.00,NE,37,0.0,3.0,71,0.00,,,0.00,0.000000,,2013-11-14 04:43:00,
2013-11-13 23:54:00,25.0,17.0,-100.00,NE,37,0.0,3.0,71,0.00,,,0.00,0.000000,,2013-11-14 04:54:00,